sensor_id;sensor_type;location;lat;lon;timestamp;P1;durP1;ratioP1;P2;durP2;ratioP2
69280;SDS011;56392;51.082;17.080;2023-04-03T00:05:07;9.18;;;2.13;;
69280;SDS011;56392;51.082;17.080;2023-04-03T00:10:30;7.43;;;1.50;;
69280;SDS011;56392;51.082;17.080;2023-04-03T00:15:53;9.20;;;1.80;;
69280;SDS011;56392;51.082;17.080;2023-04-03T00:21:18;7.82;;;1.45;;
69280;SDS011;56392;51.082;17.080;2023-04-03T00:26:41;8.95;;;1.75;;
69280;SDS011;56392;51.082;17.080;2023-04-03T00:32:04;7.83;;;1.60;;
69280;SDS011;56392;51.082;17.080;2023-04-03T00:37:29;8.97;;;1.90;;
69280;SDS011;56392;51.082;17.080;2023-04-03T00:42:55;8.15;;;1.80;;
69280;SDS011;56392;51.082;17.080;2023-04-03T00:48:20;10.07;;;1.98;;
69280;SDS011;56392;51.082;17.080;2023-04-03T00:53:49;8.90;;;1.60;;
69280;SDS011;56392;51.082;17.080;2023-04-03T00:59:16;10.45;;;1.73;;
69280;SDS011;56392;51.082;17.080;2023-04-03T01:04:46;10.88;;;1.58;;
69280;SDS011;56392;51.082;17.080;2023-04-03T01:10:11;7.67;;;1.40;;
69280;SDS011;56392;51.082;17.080;2023-04-03T01:15:36;9.50;;;1.70;;
69280;SDS011;56392;51.082;17.080;2023-04-03T01:21:17;7.95;;;1.67;;
69280;SDS011;56392;51.082;17.080;2023-04-03T01:27:01;8.60;;;1.40;;
69280;SDS011;56392;51.082;17.080;2023-04-03T01:32:27;10.17;;;1.97;;
69280;SDS011;56392;51.082;17.080;2023-04-03T01:37:50;10.45;;;1.80;;
69280;SDS011;56392;51.082;17.080;2023-04-03T01:43:13;9.95;;;1.92;;
69280;SDS011;56392;51.082;17.080;2023-04-03T01:48:38;8.53;;;1.30;;
69280;SDS011;56392;51.082;17.080;2023-04-03T01:54:01;10.00;;;1.65;;
69280;SDS011;56392;51.082;17.080;2023-04-03T01:59:25;8.82;;;1.80;;
69280;SDS011;56392;51.082;17.080;2023-04-03T02:04:50;8.67;;;1.70;;
69280;SDS011;56392;51.082;17.080;2023-04-03T02:10:13;7.38;;;1.38;;
69280;SDS011;56392;51.082;17.080;2023-04-03T02:15:37;8.40;;;1.70;;
69280;SDS011;56392;51.082;17.080;2023-04-03T02:21:02;9.27;;;1.60;;
69280;SDS011;56392;51.082;17.080;2023-04-03T02:26:26;10.27;;;1.60;;
69280;SDS011;56392;51.082;17.080;2023-04-03T02:31:49;8.43;;;1.63;;
69280;SDS011;56392;51.082;17.080;2023-04-03T02:37:14;6.63;;;1.50;;
69280;SDS011;56392;51.082;17.080;2023-04-03T02:42:37;10.23;;;1.60;;
69280;SDS011;56392;51.082;17.080;2023-04-03T02:48:00;6.10;;;1.33;;
69280;SDS011;56392;51.082;17.080;2023-04-03T02:53:24;8.82;;;1.67;;
69280;SDS011;56392;51.082;17.080;2023-04-03T02:58:47;7.60;;;1.70;;
69280;SDS011;56392;51.082;17.080;2023-04-03T03:04:12;7.07;;;1.38;;
69280;SDS011;56392;51.082;17.080;2023-04-03T03:09:36;7.57;;;1.52;;
69280;SDS011;56392;51.082;17.080;2023-04-03T03:14:59;8.97;;;1.77;;
69280;SDS011;56392;51.082;17.080;2023-04-03T03:20:23;10.07;;;1.90;;
69280;SDS011;56392;51.082;17.080;2023-04-03T03:25:47;9.63;;;1.70;;
69280;SDS011;56392;51.082;17.080;2023-04-03T03:31:12;10.23;;;1.95;;
69280;SDS011;56392;51.082;17.080;2023-04-03T03:36:36;11.63;;;1.73;;
69280;SDS011;56392;51.082;17.080;2023-04-03T03:42:01;9.50;;;1.80;;
69280;SDS011;56392;51.082;17.080;2023-04-03T03:47:24;8.35;;;1.90;;
69280;SDS011;56392;51.082;17.080;2023-04-03T03:52:47;8.70;;;2.27;;
69280;SDS011;56392;51.082;17.080;2023-04-03T03:58:12;8.75;;;2.65;;
69280;SDS011;56392;51.082;17.080;2023-04-03T04:03:35;10.68;;;2.35;;
69280;SDS011;56392;51.082;17.080;2023-04-03T04:08:58;9.87;;;2.20;;
69280;SDS011;56392;51.082;17.080;2023-04-03T04:14:23;10.45;;;2.25;;
69280;SDS011;56392;51.082;17.080;2023-04-03T04:19:46;9.82;;;2.40;;
69280;SDS011;56392;51.082;17.080;2023-04-03T04:25:09;9.07;;;2.43;;
69280;SDS011;56392;51.082;17.080;2023-04-03T04:30:34;9.02;;;2.30;;
69280;SDS011;56392;51.082;17.080;2023-04-03T04:35:57;8.63;;;2.78;;
69280;SDS011;56392;51.082;17.080;2023-04-03T04:41:20;10.53;;;2.20;;
69280;SDS011;56392;51.082;17.080;2023-04-03T04:46:46;8.35;;;2.00;;
69280;SDS011;56392;51.082;17.080;2023-04-03T04:52:09;6.90;;;2.38;;
69280;SDS011;56392;51.082;17.080;2023-04-03T04:57:32;10.27;;;2.17;;
69280;SDS011;56392;51.082;17.080;2023-04-03T05:02:57;7.90;;;1.65;;
69280;SDS011;56392;51.082;17.080;2023-04-03T05:08:20;9.20;;;1.73;;
69280;SDS011;56392;51.082;17.080;2023-04-03T05:13:44;8.33;;;1.57;;
69280;SDS011;56392;51.082;17.080;2023-04-03T05:19:09;8.93;;;1.73;;
69280;SDS011;56392;51.082;17.080;2023-04-03T05:24:32;9.47;;;1.60;;
69280;SDS011;56392;51.082;17.080;2023-04-03T05:29:55;8.63;;;1.90;;
69280;SDS011;56392;51.082;17.080;2023-04-03T05:35:21;10.30;;;1.45;;
69280;SDS011;56392;51.082;17.080;2023-04-03T05:40:44;7.83;;;1.60;;
69280;SDS011;56392;51.082;17.080;2023-04-03T05:46:09;6.10;;;1.30;;
69280;SDS011;56392;51.082;17.080;2023-04-03T05:51:35;8.43;;;1.92;;
69280;SDS011;56392;51.082;17.080;2023-04-03T05:56:59;8.57;;;1.60;;
69280;SDS011;56392;51.082;17.080;2023-04-03T06:02:23;10.77;;;2.00;;
69280;SDS011;56392;51.082;17.080;2023-04-03T06:07:49;10.23;;;2.10;;
69280;SDS011;56392;51.082;17.080;2023-04-03T06:13:12;8.30;;;1.70;;
69280;SDS011;56392;51.082;17.080;2023-04-03T06:18:35;11.53;;;2.10;;
69280;SDS011;56392;51.082;17.080;2023-04-03T06:23:59;8.00;;;2.00;;
69280;SDS011;56392;51.082;17.080;2023-04-03T06:29:23;8.27;;;1.83;;
69280;SDS011;56392;51.082;17.080;2023-04-03T06:34:46;12.17;;;2.37;;
69280;SDS011;56392;51.082;17.080;2023-04-03T06:40:12;13.00;;;2.20;;
69280;SDS011;56392;51.082;17.080;2023-04-03T06:45:42;10.73;;;2.08;;
69280;SDS011;56392;51.082;17.080;2023-04-03T06:51:05;8.50;;;1.93;;
69280;SDS011;56392;51.082;17.080;2023-04-03T06:56:29;8.25;;;2.20;;
69280;SDS011;56392;51.082;17.080;2023-04-03T07:01:53;11.15;;;2.10;;
69280;SDS011;56392;51.082;17.080;2023-04-03T07:07:16;11.03;;;2.03;;
69280;SDS011;56392;51.082;17.080;2023-04-03T07:12:41;9.83;;;2.30;;
69280;SDS011;56392;51.082;17.080;2023-04-03T07:18:04;8.95;;;2.15;;
69280;SDS011;56392;51.082;17.080;2023-04-03T07:23:27;9.93;;;2.25;;
69280;SDS011;56392;51.082;17.080;2023-04-03T07:28:52;10.67;;;2.70;;
69280;SDS011;56392;51.082;17.080;2023-04-03T07:34:15;6.40;;;1.80;;
69280;SDS011;56392;51.082;17.080;2023-04-03T07:39:38;9.65;;;2.60;;
69280;SDS011;56392;51.082;17.080;2023-04-03T07:45:04;8.23;;;1.97;;
69280;SDS011;56392;51.082;17.080;2023-04-03T07:50:29;7.43;;;2.22;;
69280;SDS011;56392;51.082;17.080;2023-04-03T07:55:53;7.43;;;2.22;;
69280;SDS011;56392;51.082;17.080;2023-04-03T08:01:19;7.93;;;2.60;;
69280;SDS011;56392;51.082;17.080;2023-04-03T08:06:43;8.70;;;2.10;;
69280;SDS011;56392;51.082;17.080;2023-04-03T08:12:06;9.52;;;2.47;;
69280;SDS011;56392;51.082;17.080;2023-04-03T08:17:30;9.05;;;2.70;;
69280;SDS011;56392;51.082;17.080;2023-04-03T08:22:55;8.93;;;2.30;;
69280;SDS011;56392;51.082;17.080;2023-04-03T08:28:19;8.23;;;2.40;;
69280;SDS011;56392;51.082;17.080;2023-04-03T08:33:44;6.95;;;2.00;;
69280;SDS011;56392;51.082;17.080;2023-04-03T08:39:08;6.50;;;2.10;;
69280;SDS011;56392;51.082;17.080;2023-04-03T08:44:34;8.13;;;1.88;;
69280;SDS011;56392;51.082;17.080;2023-04-03T08:50:04;6.57;;;1.67;;
69280;SDS011;56392;51.082;17.080;2023-04-03T08:55:31;6.00;;;1.60;;
69280;SDS011;56392;51.082;17.080;2023-04-03T09:00:59;7.07;;;1.60;;
69280;SDS011;56392;51.082;17.080;2023-04-03T09:06:27;5.75;;;1.40;;
69280;SDS011;56392;51.082;17.080;2023-04-03T09:11:57;6.90;;;1.60;;
69280;SDS011;56392;51.082;17.080;2023-04-03T09:17:34;6.17;;;1.50;;
69280;SDS011;56392;51.082;17.080;2023-04-03T09:23:07;6.55;;;1.40;;
69280;SDS011;56392;51.082;17.080;2023-04-03T09:28:40;4.85;;;1.00;;
69280;SDS011;56392;51.082;17.080;2023-04-03T09:34:05;7.03;;;1.30;;
69280;SDS011;56392;51.082;17.080;2023-04-03T09:39:32;6.63;;;1.48;;
69280;SDS011;56392;51.082;17.080;2023-04-03T09:45:21;6.57;;;1.30;;
69280;SDS011;56392;51.082;17.080;2023-04-03T09:50:55;6.00;;;1.40;;
69280;SDS011;56392;51.082;17.080;2023-04-03T09:56:23;6.27;;;1.50;;
69280;SDS011;56392;51.082;17.080;2023-04-03T10:01:56;5.38;;;1.40;;
69280;SDS011;56392;51.082;17.080;2023-04-03T10:07:31;5.85;;;1.35;;
69280;SDS011;56392;51.082;17.080;2023-04-03T10:13:05;9.57;;;2.67;;
69280;SDS011;56392;51.082;17.080;2023-04-03T10:18:32;8.00;;;1.58;;
69280;SDS011;56392;51.082;17.080;2023-04-03T10:24:06;5.97;;;1.50;;
69280;SDS011;56392;51.082;17.080;2023-04-03T10:29:38;12.30;;;3.97;;
69280;SDS011;56392;51.082;17.080;2023-04-03T10:35:08;6.57;;;1.60;;
69280;SDS011;56392;51.082;17.080;2023-04-03T10:40:39;7.28;;;1.50;;
69280;SDS011;56392;51.082;17.080;2023-04-03T10:46:10;5.87;;;1.30;;
69280;SDS011;56392;51.082;17.080;2023-04-03T10:51:40;7.93;;;1.40;;
69280;SDS011;56392;51.082;17.080;2023-04-03T10:57:06;5.65;;;1.45;;
69280;SDS011;56392;51.082;17.080;2023-04-03T11:02:35;6.13;;;1.40;;
69280;SDS011;56392;51.082;17.080;2023-04-03T11:08:13;5.47;;;1.53;;
69280;SDS011;56392;51.082;17.080;2023-04-03T11:13:48;7.35;;;1.65;;
69280;SDS011;56392;51.082;17.080;2023-04-03T11:19:18;6.70;;;1.60;;
69280;SDS011;56392;51.082;17.080;2023-04-03T11:24:46;5.50;;;1.30;;
69280;SDS011;56392;51.082;17.080;2023-04-03T11:30:18;5.30;;;1.20;;
69280;SDS011;56392;51.082;17.080;2023-04-03T11:35:46;5.65;;;1.40;;
69280;SDS011;56392;51.082;17.080;2023-04-03T11:41:12;10.47;;;3.00;;
69280;SDS011;56392;51.082;17.080;2023-04-03T11:46:49;8.93;;;3.03;;
69280;SDS011;56392;51.082;17.080;2023-04-03T11:52:15;5.47;;;1.27;;
69280;SDS011;56392;51.082;17.080;2023-04-03T11:58:17;6.57;;;1.60;;
69280;SDS011;56392;51.082;17.080;2023-04-03T12:09:26;7.15;;;1.80;;
69280;SDS011;56392;51.082;17.080;2023-04-03T12:14:51;6.18;;;1.60;;
69280;SDS011;56392;51.082;17.080;2023-04-03T12:26:21;7.40;;;1.50;;
69280;SDS011;56392;51.082;17.080;2023-04-03T12:31:50;7.25;;;1.50;;
69280;SDS011;56392;51.082;17.080;2023-04-03T12:43:20;7.03;;;1.67;;
69280;SDS011;56392;51.082;17.080;2023-04-03T12:48:55;7.32;;;1.50;;
69280;SDS011;56392;51.082;17.080;2023-04-03T12:54:21;7.43;;;1.63;;
69280;SDS011;56392;51.082;17.080;2023-04-03T12:59:50;6.07;;;1.70;;
69280;SDS011;56392;51.082;17.080;2023-04-03T13:05:14;6.25;;;1.63;;
69280;SDS011;56392;51.082;17.080;2023-04-03T13:16:25;6.83;;;1.90;;
69280;SDS011;56392;51.082;17.080;2023-04-03T13:21:49;10.23;;;2.80;;
69280;SDS011;56392;51.082;17.080;2023-04-03T13:27:16;6.65;;;1.98;;
69280;SDS011;56392;51.082;17.080;2023-04-03T13:32:42;7.13;;;1.63;;
69280;SDS011;56392;51.082;17.080;2023-04-03T13:38:19;6.87;;;2.10;;
69280;SDS011;56392;51.082;17.080;2023-04-03T13:43:46;6.05;;;1.60;;
69280;SDS011;56392;51.082;17.080;2023-04-03T13:49:19;6.45;;;1.98;;
69280;SDS011;56392;51.082;17.080;2023-04-03T13:54:43;7.00;;;1.63;;
69280;SDS011;56392;51.082;17.080;2023-04-03T14:00:28;7.45;;;1.85;;
69280;SDS011;56392;51.082;17.080;2023-04-03T14:05:55;5.93;;;1.60;;
69280;SDS011;56392;51.082;17.080;2023-04-03T14:11:20;7.03;;;1.63;;
69280;SDS011;56392;51.082;17.080;2023-04-03T14:16:48;6.82;;;1.70;;
69280;SDS011;56392;51.082;17.080;2023-04-03T14:22:16;8.45;;;1.98;;
69280;SDS011;56392;51.082;17.080;2023-04-03T14:27:43;6.40;;;1.80;;
69280;SDS011;56392;51.082;17.080;2023-04-03T14:33:09;7.47;;;1.83;;
69280;SDS011;56392;51.082;17.080;2023-04-03T14:38:36;6.57;;;1.75;;
69280;SDS011;56392;51.082;17.080;2023-04-03T14:44:01;5.53;;;1.50;;
69280;SDS011;56392;51.082;17.080;2023-04-03T14:49:25;5.77;;;1.40;;
69280;SDS011;56392;51.082;17.080;2023-04-03T14:54:53;6.95;;;1.45;;
69280;SDS011;56392;51.082;17.080;2023-04-03T15:00:18;6.32;;;1.60;;
69280;SDS011;56392;51.082;17.080;2023-04-03T15:05:43;5.93;;;1.33;;
69280;SDS011;56392;51.082;17.080;2023-04-03T15:11:11;5.55;;;1.38;;
69280;SDS011;56392;51.082;17.080;2023-04-03T15:16:34;6.50;;;1.60;;
69280;SDS011;56392;51.082;17.080;2023-04-03T15:21:59;7.70;;;1.77;;
69280;SDS011;56392;51.082;17.080;2023-04-03T15:27:24;6.17;;;1.57;;
69280;SDS011;56392;51.082;17.080;2023-04-03T15:32:47;7.00;;;1.80;;
69280;SDS011;56392;51.082;17.080;2023-04-03T15:38:10;5.97;;;1.60;;
69280;SDS011;56392;51.082;17.080;2023-04-03T15:43:35;8.97;;;2.10;;
69280;SDS011;56392;51.082;17.080;2023-04-03T15:48:58;7.63;;;1.80;;
69280;SDS011;56392;51.082;17.080;2023-04-03T15:54:21;6.05;;;1.70;;
69280;SDS011;56392;51.082;17.080;2023-04-03T15:59:47;6.93;;;1.80;;
69280;SDS011;56392;51.082;17.080;2023-04-03T16:05:13;7.63;;;1.70;;
69280;SDS011;56392;51.082;17.080;2023-04-03T16:10:38;7.70;;;1.75;;
69280;SDS011;56392;51.082;17.080;2023-04-03T16:16:03;6.80;;;1.70;;
69280;SDS011;56392;51.082;17.080;2023-04-03T16:21:27;6.50;;;1.80;;
69280;SDS011;56392;51.082;17.080;2023-04-03T16:26:51;8.15;;;1.80;;
69280;SDS011;56392;51.082;17.080;2023-04-03T16:32:16;6.35;;;1.92;;
69280;SDS011;56392;51.082;17.080;2023-04-03T16:37:39;6.57;;;1.50;;
69280;SDS011;56392;51.082;17.080;2023-04-03T16:43:02;7.38;;;1.90;;
69280;SDS011;56392;51.082;17.080;2023-04-03T16:48:27;7.28;;;1.58;;
69280;SDS011;56392;51.082;17.080;2023-04-03T16:53:51;6.63;;;1.80;;
69280;SDS011;56392;51.082;17.080;2023-04-03T16:59:14;9.38;;;1.73;;
69280;SDS011;56392;51.082;17.080;2023-04-03T17:04:38;8.05;;;2.17;;
69280;SDS011;56392;51.082;17.080;2023-04-03T17:10:01;7.23;;;2.00;;
69280;SDS011;56392;51.082;17.080;2023-04-03T17:15:24;7.37;;;2.30;;
69280;SDS011;56392;51.082;17.080;2023-04-03T17:20:49;7.95;;;2.15;;
69280;SDS011;56392;51.082;17.080;2023-04-03T17:26:12;7.63;;;2.00;;
69280;SDS011;56392;51.082;17.080;2023-04-03T17:31:35;7.37;;;2.13;;
69280;SDS011;56392;51.082;17.080;2023-04-03T17:37:00;8.73;;;2.25;;
69280;SDS011;56392;51.082;17.080;2023-04-03T17:42:23;8.88;;;2.20;;
69280;SDS011;56392;51.082;17.080;2023-04-03T17:47:46;8.17;;;2.03;;
69280;SDS011;56392;51.082;17.080;2023-04-03T17:53:12;9.68;;;2.45;;
69280;SDS011;56392;51.082;17.080;2023-04-03T17:58:36;7.60;;;2.03;;
69280;SDS011;56392;51.082;17.080;2023-04-03T18:04:00;8.10;;;2.10;;
69280;SDS011;56392;51.082;17.080;2023-04-03T18:09:28;8.17;;;2.33;;
69280;SDS011;56392;51.082;17.080;2023-04-03T18:14:53;9.00;;;2.25;;
69280;SDS011;56392;51.082;17.080;2023-04-03T18:20:16;8.55;;;2.60;;
69280;SDS011;56392;51.082;17.080;2023-04-03T18:25:41;8.57;;;2.50;;
69280;SDS011;56392;51.082;17.080;2023-04-03T18:31:04;10.32;;;2.60;;
69280;SDS011;56392;51.082;17.080;2023-04-03T18:36:31;7.53;;;2.30;;
69280;SDS011;56392;51.082;17.080;2023-04-03T18:41:55;8.20;;;2.30;;
69280;SDS011;56392;51.082;17.080;2023-04-03T18:47:26;9.55;;;2.55;;
69280;SDS011;56392;51.082;17.080;2023-04-03T18:52:50;8.25;;;2.13;;
69280;SDS011;56392;51.082;17.080;2023-04-03T18:58:15;8.87;;;2.80;;
69280;SDS011;56392;51.082;17.080;2023-04-03T19:03:38;9.67;;;2.50;;
69280;SDS011;56392;51.082;17.080;2023-04-03T19:09:02;8.65;;;2.40;;
69280;SDS011;56392;51.082;17.080;2023-04-03T19:14:29;10.88;;;3.20;;
69280;SDS011;56392;51.082;17.080;2023-04-03T19:19:52;8.63;;;2.60;;
69280;SDS011;56392;51.082;17.080;2023-04-03T19:25:15;8.15;;;2.58;;
69280;SDS011;56392;51.082;17.080;2023-04-03T19:30:39;8.70;;;2.53;;
69280;SDS011;56392;51.082;17.080;2023-04-03T19:36:03;7.37;;;2.40;;
69280;SDS011;56392;51.082;17.080;2023-04-03T19:41:27;8.35;;;2.30;;
69280;SDS011;56392;51.082;17.080;2023-04-03T19:46:54;10.90;;;3.45;;
69280;SDS011;56392;51.082;17.080;2023-04-03T19:52:17;13.60;;;3.87;;
69280;SDS011;56392;51.082;17.080;2023-04-03T19:57:40;16.80;;;4.67;;
69280;SDS011;56392;51.082;17.080;2023-04-03T20:03:05;20.85;;;6.30;;
69280;SDS011;56392;51.082;17.080;2023-04-03T20:08:28;13.45;;;3.90;;
69280;SDS011;56392;51.082;17.080;2023-04-03T20:13:52;11.33;;;2.80;;
69280;SDS011;56392;51.082;17.080;2023-04-03T20:19:17;10.10;;;2.50;;
69280;SDS011;56392;51.082;17.080;2023-04-03T20:24:41;10.70;;;2.67;;
69280;SDS011;56392;51.082;17.080;2023-04-03T20:30:05;7.70;;;2.43;;
69280;SDS011;56392;51.082;17.080;2023-04-03T20:35:34;11.60;;;3.45;;
69280;SDS011;56392;51.082;17.080;2023-04-03T20:40:57;10.77;;;2.88;;
69280;SDS011;56392;51.082;17.080;2023-04-03T20:46:21;10.93;;;2.80;;
69280;SDS011;56392;51.082;17.080;2023-04-03T20:51:49;8.70;;;2.50;;
69280;SDS011;56392;51.082;17.080;2023-04-03T20:57:13;10.05;;;2.88;;
69280;SDS011;56392;51.082;17.080;2023-04-03T21:02:36;10.80;;;2.60;;
69280;SDS011;56392;51.082;17.080;2023-04-03T21:20:05;8.48;;;1.98;;
69280;SDS011;56392;51.082;17.080;2023-04-03T21:25:29;8.70;;;2.30;;
69280;SDS011;56392;51.082;17.080;2023-04-03T21:30:53;7.57;;;1.80;;
69280;SDS011;56392;51.082;17.080;2023-04-03T21:36:17;7.35;;;1.98;;
69280;SDS011;56392;51.082;17.080;2023-04-03T21:41:40;8.60;;;1.90;;
69280;SDS011;56392;51.082;17.080;2023-04-03T21:47:04;9.47;;;2.10;;
69280;SDS011;56392;51.082;17.080;2023-04-03T21:52:29;12.00;;;2.60;;
69280;SDS011;56392;51.082;17.080;2023-04-03T21:57:52;8.20;;;2.30;;
69280;SDS011;56392;51.082;17.080;2023-04-03T22:03:18;7.10;;;2.20;;
69280;SDS011;56392;51.082;17.080;2023-04-03T22:08:44;8.30;;;2.20;;
69280;SDS011;56392;51.082;17.080;2023-04-03T22:14:07;7.57;;;2.00;;
69280;SDS011;56392;51.082;17.080;2023-04-03T22:19:30;8.53;;;2.30;;
69280;SDS011;56392;51.082;17.080;2023-04-03T22:24:55;8.90;;;2.20;;
69280;SDS011;56392;51.082;17.080;2023-04-03T22:30:18;7.80;;;2.20;;
69280;SDS011;56392;51.082;17.080;2023-04-03T22:35:44;10.90;;;2.53;;
69280;SDS011;56392;51.082;17.080;2023-04-03T22:41:09;13.77;;;2.47;;
69280;SDS011;56392;51.082;17.080;2023-04-03T22:46:33;8.45;;;2.13;;
69280;SDS011;56392;51.082;17.080;2023-04-03T22:51:56;10.50;;;2.70;;
69280;SDS011;56392;51.082;17.080;2023-04-03T22:57:21;10.53;;;2.70;;
69280;SDS011;56392;51.082;17.080;2023-04-03T23:02:44;12.45;;;3.35;;
69280;SDS011;56392;51.082;17.080;2023-04-03T23:08:08;11.48;;;3.47;;
69280;SDS011;56392;51.082;17.080;2023-04-03T23:13:33;9.17;;;2.97;;
69280;SDS011;56392;51.082;17.080;2023-04-03T23:18:57;9.65;;;2.58;;
69280;SDS011;56392;51.082;17.080;2023-04-03T23:24:21;9.55;;;2.72;;
69280;SDS011;56392;51.082;17.080;2023-04-03T23:29:45;8.43;;;2.60;;
69280;SDS011;56392;51.082;17.080;2023-04-03T23:35:09;8.82;;;2.28;;
69280;SDS011;56392;51.082;17.080;2023-04-03T23:40:32;10.05;;;2.50;;
69280;SDS011;56392;51.082;17.080;2023-04-03T23:45:57;9.60;;;2.50;;
69280;SDS011;56392;51.082;17.080;2023-04-03T23:51:20;12.23;;;2.73;;
69280;SDS011;56392;51.082;17.080;2023-04-03T23:56:45;9.93;;;3.05;;
